Time;durP1;ratioP1;P1;durP2;ratioP2;P2;SDS_P1;SDS_P2;PMS_P1;PMS_P2;Temp;Humidity;BMP_temperature;BMP_pressure;BME280_temperature;BME280_humidity;BME280_pressure;Samples;Min_cycle;Max_cycle;Signal;HPM_P1;HPM_P2
2022/11/14 00:00:00;;;;;;;10.17;4.87;;;14.70;75.80;;;;;;4989834;28;20537;-62
2022/11/14 00:02:26;;;;;;;9.93;4.13;;;14.70;75.00;;;;;;4985440;28;20031;-60
2022/11/14 00:04:52;;;;;;;9.95;3.97;;;14.80;74.60;;;;;;4987803;28;20525;-63
2022/11/14 00:07:18;;;;;;;9.27;4.03;;;14.70;74.30;;;;;;4984931;28;20041;-61
2022/11/14 00:09:43;;;;;;;8.97;4.20;;;14.80;74.00;;;;;;4986305;28;20023;-61
2022/11/14 00:12:10;;;;;;;13.67;3.83;;;14.70;74.10;;;;;;4987186;28;20029;-60
2022/11/14 00:14:36;;;;;;;8.73;3.83;;;14.70;73.80;;;;;;4987752;28;20030;-63
2022/11/14 00:17:03;;;;;;;11.60;4.45;;;14.70;74.20;;;;;;4988462;28;20030;-62
2022/11/14 00:19:28;;;;;;;;;;;14.70;73.70;;;;;;4987998;28;20057;-59
2022/11/14 00:21:54;;;;;;;11.05;3.50;;;14.70;73.60;;;;;;4985363;28;19955;-58
2022/11/14 00:24:20;;;;;;;14.73;4.07;;;14.70;74.20;;;;;;4987820;28;20041;-61
2022/11/14 00:26:46;;;;;;;10.52;4.20;;;14.70;73.80;;;;;;4984967;28;20096;-60
2022/11/14 00:29:13;;;;;;;13.40;4.53;;;14.70;73.40;;;;;;4986531;28;20095;-61
2022/11/14 00:31:39;;;;;;;11.68;4.30;;;14.70;73.70;;;;;;4983359;28;20109;-58
2022/11/14 00:34:05;;;;;;;8.77;3.92;;;14.70;73.30;;;;;;4987352;28;20108;-60
2022/11/14 00:36:31;;;;;;;10.90;4.20;;;14.70;72.60;;;;;;4988797;28;20462;-61
2022/11/14 00:38:56;;;;;;;12.83;4.57;;;14.70;72.00;;;;;;4986302;28;20070;-62
2022/11/14 00:41:22;;;;;;;11.77;4.20;;;14.70;72.10;;;;;;4980405;28;20062;-59
2022/11/14 00:43:48;;;;;;;13.50;4.03;;;14.70;72.30;;;;;;4987268;28;20801;-62
2022/11/14 00:46:14;;;;;;;6.60;3.50;;;14.70;71.90;;;;;;4985686;28;20022;-61
2022/11/14 00:48:39;;;;;;;10.80;3.60;;;14.70;71.50;;;;;;4987320;28;20141;-58
2022/11/14 00:51:05;;;;;;;10.53;4.30;;;14.70;71.90;;;;;;4986930;28;20532;-60
2022/11/14 00:53:31;;;;;;;7.60;4.43;;;14.70;71.30;;;;;;4987456;28;20035;-60
2022/11/14 00:55:56;;;;;;;10.00;3.73;;;14.60;71.50;;;;;;4986744;28;20030;-60
2022/11/14 00:58:22;;;;;;;9.50;4.33;;;14.60;71.70;;;;;;4986674;28;20106;-60
2022/11/14 01:00:48;;;;;;;13.85;4.53;;;14.60;71.40;;;;;;4985850;28;20030;-59
2022/11/14 01:03:13;;;;;;;11.87;4.07;;;14.60;71.20;;;;;;4983212;28;20054;-60
2022/11/14 01:05:44;;;;;;;7.97;3.43;;;14.60;71.20;;;;;;4987196;28;20035;-62
2022/11/14 01:08:10;;;;;;;8.77;3.75;;;14.60;71.30;;;;;;4985495;28;20026;-59
2022/11/14 01:10:45;;;;;;;9.13;3.78;;;14.60;71.10;;;;;;4985865;28;20025;-62
2022/11/14 01:13:11;;;;;;;10.60;4.85;;;14.60;71.10;;;;;;4982822;28;20022;-57
2022/11/14 01:15:39;;;;;;;13.13;4.53;;;14.60;71.00;;;;;;4987489;28;20030;-58
2022/11/14 01:18:04;;;;;;;9.05;4.05;;;14.60;70.90;;;;;;4984514;28;20394;-57
2022/11/14 01:20:30;;;;;;;13.37;3.87;;;14.60;71.00;;;;;;4984402;28;20027;-57
2022/11/14 01:22:55;;;;;;;9.60;4.30;;;14.60;71.00;;;;;;4983091;28;20081;-61
2022/11/14 01:25:21;;;;;;;11.27;4.33;;;14.50;71.00;;;;;;4986522;28;20038;-62
2022/11/14 01:27:47;;;;;;;9.53;4.57;;;14.60;71.50;;;;;;4985199;28;20014;-63
2022/11/14 01:30:13;;;;;;;10.17;3.97;;;14.60;71.30;;;;;;4987517;28;20625;-62
2022/11/14 01:32:38;;;;;;;16.60;4.80;;;14.60;71.80;;;;;;4981342;28;20042;-60
2022/11/14 01:35:04;;;;;;;9.53;4.53;;;14.60;71.60;;;;;;4987035;28;21066;-61
2022/11/14 01:37:30;;;;;;;14.77;4.17;;;14.50;71.40;;;;;;4987706;28;20026;-61
2022/11/14 01:39:55;;;;;;;9.57;4.40;;;14.50;71.70;;;;;;4984648;28;20026;-59
2022/11/14 01:42:21;;;;;;;10.63;4.77;;;14.50;72.00;;;;;;4984621;28;20113;-62
2022/11/14 01:44:49;;;;;;;14.43;4.33;;;14.50;72.20;;;;;;4985035;28;20530;-63
2022/11/14 01:47:21;;;;;;;15.45;4.57;;;14.50;72.10;;;;;;4982512;28;20038;-62
2022/11/14 01:49:52;;;;;;;11.00;4.32;;;14.50;72.20;;;;;;4979610;28;20038;-60
2022/11/14 01:52:26;;;;;;;12.50;4.18;;;14.50;72.00;;;;;;4986035;28;20022;-62
2022/11/14 01:54:54;;;;;;;10.00;5.22;;;14.50;71.40;;;;;;4985816;28;20117;-61
2022/11/14 01:57:26;;;;;;;10.43;4.20;;;14.50;71.40;;;;;;4982621;28;20061;-62
2022/11/14 01:59:54;;;;;;;10.13;4.20;;;14.50;70.30;;;;;;4987835;28;20026;-59
2022/11/14 02:02:22;;;;;;;8.20;3.50;;;14.50;70.10;;;;;;4984384;28;20062;-59
2022/11/14 02:04:56;;;;;;;7.05;3.95;;;14.50;69.80;;;;;;4986209;28;20034;-61
2022/11/14 02:07:24;;;;;;;9.73;3.63;;;14.50;69.80;;;;;;4986478;28;20446;-61
2022/11/14 02:09:50;;;;;;;9.23;4.13;;;14.50;69.80;;;;;;4986249;28;20096;-63
2022/11/14 02:12:17;;;;;;;13.60;4.15;;;14.50;70.00;;;;;;4990294;28;20026;-61
2022/11/14 02:14:45;;;;;;;6.80;3.72;;;14.50;69.80;;;;;;4990051;28;20487;-62
2022/11/14 02:17:12;;;;;;;8.15;3.65;;;14.50;69.60;;;;;;4989582;28;20022;-61
2022/11/14 02:19:42;;;;;;;;;;;14.40;69.30;;;;;;4992283;28;20102;-61
2022/11/14 02:22:07;;;;;;;14.10;4.43;;;14.40;69.40;;;;;;4988990;28;19910;-62
2022/11/14 02:24:33;;;;;;;7.20;3.80;;;14.40;69.10;;;;;;4987497;28;20533;-62
2022/11/14 02:26:58;;;;;;;15.97;4.37;;;14.40;69.30;;;;;;4989092;28;20022;-57
2022/11/14 02:29:24;;;;;;;10.40;4.43;;;14.40;69.20;;;;;;4989762;28;20470;-58
2022/11/14 02:31:49;;;;;;;6.40;3.93;;;14.40;69.10;;;;;;4989735;28;20027;-61
2022/11/14 02:34:18;;;;;;;8.00;4.83;;;14.40;69.00;;;;;;4986525;28;20034;-61
2022/11/14 02:36:44;;;;;;;10.90;4.22;;;14.40;69.40;;;;;;4991353;28;20105;-62
2022/11/14 02:39:10;;;;;;;11.18;4.32;;;14.30;69.00;;;;;;4987041;28;20138;-63
2022/11/14 02:41:35;;;;;;;11.67;4.00;;;14.40;69.20;;;;;;4989363;28;20037;-62
2022/11/14 02:44:01;;;;;;;10.23;3.83;;;14.30;69.10;;;;;;4988278;28;20026;-60
2022/11/14 02:46:27;;;;;;;6.33;3.57;;;14.30;69.30;;;;;;4989080;28;20112;-61
2022/11/14 02:48:52;;;;;;;10.30;4.23;;;14.30;68.30;;;;;;4986893;28;20042;-60
2022/11/14 02:51:18;;;;;;;13.20;4.37;;;14.30;68.20;;;;;;4986005;28;20100;-60
2022/11/14 02:53:43;;;;;;;7.33;3.77;;;14.20;68.10;;;;;;4990794;28;20399;-61
2022/11/14 02:56:09;;;;;;;7.83;4.53;;;14.20;67.70;;;;;;4989923;28;20026;-60
2022/11/14 02:58:35;;;;;;;6.63;3.80;;;14.20;68.30;;;;;;4991192;28;20052;-58
2022/11/14 03:01:00;;;;;;;11.90;4.45;;;14.20;67.70;;;;;;4990589;28;20065;-60
2022/11/14 03:03:26;;;;;;;15.10;4.00;;;14.20;67.50;;;;;;4988611;28;20085;-62
2022/11/14 03:05:52;;;;;;;12.97;4.00;;;14.20;67.60;;;;;;4988960;28;20026;-61
2022/11/14 03:08:18;;;;;;;7.88;3.60;;;14.20;67.70;;;;;;4989696;28;20033;-61
2022/11/14 03:10:44;;;;;;;12.98;3.78;;;14.20;67.70;;;;;;4989396;28;20027;-61
2022/11/14 03:13:10;;;;;;;9.10;4.15;;;14.20;67.90;;;;;;4985888;28;20029;-61
2022/11/14 03:15:36;;;;;;;9.73;3.90;;;14.10;68.00;;;;;;4989111;28;20034;-61
2022/11/14 03:18:02;;;;;;;9.63;4.30;;;14.20;67.70;;;;;;4988894;28;20105;-57
2022/11/14 03:20:27;;;;;;;6.77;3.87;;;14.20;68.00;;;;;;4988015;28;20161;-60
2022/11/14 03:22:53;;;;;;;9.57;4.03;;;14.20;67.80;;;;;;4990515;28;20027;-57
2022/11/14 03:25:19;;;;;;;9.90;4.10;;;14.20;67.50;;;;;;4988397;28;20041;-61
2022/11/14 03:27:44;;;;;;;6.57;3.43;;;14.20;67.60;;;;;;4990279;28;20081;-58
2022/11/14 03:30:10;;;;;;;13.53;3.83;;;14.20;67.20;;;;;;4987922;28;20046;-57
2022/11/14 03:32:36;;;;;;;8.73;4.18;;;14.20;67.40;;;;;;4986076;28;20034;-58
2022/11/14 03:35:02;;;;;;;9.70;4.43;;;14.20;67.50;;;;;;4981093;28;20101;-56
2022/11/14 03:37:27;;;;;;;7.27;4.30;;;14.10;67.40;;;;;;4988891;28;20019;-58
2022/11/14 03:39:53;;;;;;;9.57;4.17;;;14.20;67.60;;;;;;4987729;28;20034;-59
2022/11/14 03:42:18;;;;;;;9.27;4.20;;;14.20;67.10;;;;;;4987460;28;20046;-57
2022/11/14 03:44:44;;;;;;;5.97;3.33;;;14.20;66.50;;;;;;4987125;28;20585;-62
2022/11/14 03:47:09;;;;;;;6.30;3.63;;;14.20;66.00;;;;;;4985673;28;20037;-62
2022/11/14 03:49:35;;;;;;;11.37;4.07;;;14.20;66.00;;;;;;4988100;28;20498;-62
2022/11/14 03:52:01;;;;;;;9.93;4.20;;;14.20;66.10;;;;;;4986732;28;20101;-63
2022/11/14 03:54:26;;;;;;;11.13;3.50;;;14.10;66.00;;;;;;4987598;28;20588;-62
2022/11/14 03:56:52;;;;;;;9.13;4.33;;;14.10;66.00;;;;;;4986747;28;20077;-61
2022/11/14 03:59:17;;;;;;;10.33;4.63;;;14.10;66.10;;;;;;4986900;28;20254;-61
2022/11/14 04:01:43;;;;;;;8.67;3.83;;;14.10;65.80;;;;;;4983852;28;20035;-63
2022/11/14 04:04:11;;;;;;;10.87;4.37;;;14.10;65.50;;;;;;4987481;28;20047;-59
2022/11/14 04:06:37;;;;;;;6.03;3.55;;;14.10;65.50;;;;;;4989599;28;20025;-61
2022/11/14 04:09:02;;;;;;;5.83;3.73;;;14.10;65.60;;;;;;4985322;28;20698;-59
2022/11/14 04:11:28;;;;;;;9.20;3.50;;;14.10;65.30;;;;;;4988511;28;20277;-59
2022/11/14 04:13:54;;;;;;;13.53;3.83;;;14.10;65.70;;;;;;4984757;28;20021;-60
2022/11/14 04:16:19;;;;;;;7.30;3.83;;;14.10;65.20;;;;;;4986738;28;20113;-62
2022/11/14 04:18:45;;;;;;;8.87;3.50;;;14.10;65.60;;;;;;4982320;28;20021;-61
2022/11/14 04:21:10;;;;;;;7.07;3.50;;;14.00;65.20;;;;;;4983142;28;20109;-60
2022/11/14 04:23:36;;;;;;;8.50;3.40;;;14.00;65.30;;;;;;4987252;28;20035;-60
2022/11/14 04:26:01;;;;;;;6.87;3.27;;;14.00;64.90;;;;;;4986421;28;20465;-60
2022/11/14 04:28:27;;;;;;;8.70;3.70;;;14.00;64.70;;;;;;4985861;28;20026;-62
2022/11/14 04:30:53;;;;;;;5.47;3.50;;;14.00;65.00;;;;;;4984203;28;20825;-62
2022/11/14 04:33:18;;;;;;;7.17;3.40;;;14.00;65.40;;;;;;4983556;28;20082;-59
2022/11/14 04:35:44;;;;;;;8.20;3.80;;;14.00;65.40;;;;;;4987174;28;20028;-59
2022/11/14 04:38:10;;;;;;;7.10;3.53;;;14.00;65.60;;;;;;4988866;28;20027;-58
2022/11/14 04:40:35;;;;;;;6.67;3.07;;;14.00;65.20;;;;;;4985493;28;20034;-59
2022/11/14 04:43:01;;;;;;;9.80;3.70;;;14.00;64.60;;;;;;4988748;28;20377;-60
2022/11/14 04:45:27;;;;;;;13.47;5.43;;;14.00;64.20;;;;;;4987166;28;20034;-59
2022/11/14 04:47:52;;;;;;;7.43;3.42;;;14.00;64.20;;;;;;4985183;28;20025;-61
2022/11/14 04:50:18;;;;;;;7.77;3.43;;;14.00;64.20;;;;;;4989007;28;20084;-61
2022/11/14 04:52:44;;;;;;;6.40;3.07;;;14.00;64.40;;;;;;4986458;28;20463;-62
2022/11/14 04:55:09;;;;;;;7.47;3.43;;;14.00;64.00;;;;;;4987048;28;20031;-61
2022/11/14 04:57:35;;;;;;;8.43;3.23;;;14.10;63.70;;;;;;4987757;28;20453;-60
2022/11/14 05:00:01;;;;;;;8.10;3.70;;;14.10;63.30;;;;;;4987292;28;20297;-62
2022/11/14 05:02:30;;;;;;;7.03;3.13;;;14.10;63.00;;;;;;4985799;28;20030;-61
2022/11/14 05:04:56;;;;;;;6.30;3.20;;;14.10;62.50;;;;;;4988308;28;20042;-62
2022/11/14 05:07:21;;;;;;;6.00;3.23;;;14.20;62.80;;;;;;4985782;28;20056;-60
2022/11/14 05:09:47;;;;;;;7.23;3.00;;;14.20;62.40;;;;;;4988483;28;20031;-61
2022/11/14 05:12:12;;;;;;;5.10;3.00;;;14.10;62.10;;;;;;4984182;28;20034;-60
2022/11/14 05:14:38;;;;;;;4.43;2.60;;;14.10;62.10;;;;;;4984862;28;20030;-60
2022/11/14 05:17:04;;;;;;;7.10;3.60;;;14.10;62.10;;;;;;4985829;28;20590;-61
2022/11/14 05:19:29;;;;;;;4.80;3.07;;;14.10;61.60;;;;;;4987651;28;20120;-61
2022/11/14 05:21:55;;;;;;;7.93;3.23;;;14.10;62.30;;;;;;4986314;28;20406;-62
2022/11/14 05:24:20;;;;;;;5.37;2.67;;;14.10;62.10;;;;;;4982928;28;20038;-60
2022/11/14 05:26:46;;;;;;;8.60;3.23;;;14.10;61.80;;;;;;4986529;28;20030;-58
2022/11/14 05:29:11;;;;;;;7.80;3.10;;;14.10;61.70;;;;;;4986691;28;20038;-56
2022/11/14 05:31:37;;;;;;;8.83;3.80;;;14.10;61.70;;;;;;4986518;28;20093;-59
2022/11/14 05:34:03;;;;;;;8.57;3.50;;;14.10;61.80;;;;;;4986251;28;20038;-61
2022/11/14 05:36:28;;;;;;;7.63;3.60;;;14.20;61.60;;;;;;4987439;28;20093;-61
2022/11/14 05:38:54;;;;;;;7.43;3.40;;;14.10;62.10;;;;;;4984426;28;20030;-61
2022/11/14 05:41:20;;;;;;;4.60;2.90;;;14.10;61.70;;;;;;4985652;28;20121;-58
2022/11/14 05:43:46;;;;;;;8.03;3.03;;;14.10;61.60;;;;;;4989219;28;20038;-61
2022/11/14 05:46:14;;;;;;;4.57;2.90;;;14.10;61.40;;;;;;4991369;28;20621;-60
2022/11/14 05:48:40;;;;;;;6.88;2.85;;;14.20;61.30;;;;;;4987678;28;20081;-58
2022/11/14 05:51:09;;;;;;;5.40;3.17;;;14.20;60.60;;;;;;4989268;28;20497;-58
2022/11/14 05:53:34;;;;;;;5.72;3.30;;;14.20;60.30;;;;;;4992284;28;20056;-56
2022/11/14 05:56:06;;;;;;;6.83;2.73;;;14.30;60.20;;;;;;4987164;28;20478;-57
2022/11/14 05:58:33;;;;;;;6.30;3.25;;;14.30;59.80;;;;;;4989456;28;20446;-56
2022/11/14 06:01:05;;;;;;;8.68;3.22;;;14.30;59.90;;;;;;4989203;28;20034;-56
2022/11/14 06:03:39;;;;;;;6.57;2.50;;;14.30;59.40;;;;;;4988227;28;20038;-57
2022/11/14 06:06:07;;;;;;;7.97;3.30;;;14.30;59.70;;;;;;4991893;28;20038;-61
2022/11/14 06:08:33;;;;;;;8.10;3.05;;;14.30;60.00;;;;;;4987709;28;20499;-61
2022/11/14 06:11:10;;;;;;;5.60;2.83;;;14.30;59.90;;;;;;4984423;28;20035;-63
2022/11/14 06:13:36;;;;;;;6.45;2.90;;;14.30;60.40;;;;;;4986555;28;20034;-60
2022/11/14 06:16:04;;;;;;;10.23;2.97;;;14.20;60.90;;;;;;4991632;28;20462;-61
2022/11/14 06:18:31;;;;;;;6.78;3.05;;;14.20;60.90;;;;;;4987928;28;20037;-61
2022/11/14 06:21:04;;;;;;;5.68;2.90;;;14.10;61.50;;;;;;4989312;28;20034;-62
2022/11/14 06:23:30;;;;;;;11.20;3.35;;;14.00;61.80;;;;;;4986804;28;20030;-60
2022/11/14 06:26:00;;;;;;;7.18;3.38;;;14.00;62.00;;;;;;4991332;28;20065;-58
2022/11/14 06:28:26;;;;;;;7.93;2.92;;;13.90;62.10;;;;;;4987841;28;20129;-62
2022/11/14 06:30:56;;;;;;;9.13;3.35;;;13.90;62.40;;;;;;4989848;28;20050;-60
2022/11/14 06:33:22;;;;;;;4.45;3.10;;;13.80;62.40;;;;;;4988475;28;20110;-58
2022/11/14 06:35:47;;;;;;;10.93;3.50;;;13.80;62.50;;;;;;4990009;28;20133;-61
2022/11/14 06:38:13;;;;;;;5.40;3.17;;;13.80;62.20;;;;;;4986221;28;20081;-58
2022/11/14 06:40:39;;;;;;;6.77;3.10;;;13.80;62.50;;;;;;4988433;28;20394;-61
2022/11/14 06:43:04;;;;;;;7.60;3.23;;;13.80;62.90;;;;;;4986658;28;20041;-57
2022/11/14 06:45:30;;;;;;;6.23;3.17;;;13.80;63.10;;;;;;4986343;28;20030;-57
2022/11/14 06:47:59;;;;;;;5.80;3.10;;;13.80;62.60;;;;;;4986709;28;20108;-62
2022/11/14 06:50:25;;;;;;;6.40;3.03;;;13.80;62.00;;;;;;4988098;28;20466;-61
2022/11/14 06:52:50;;;;;;;6.93;3.72;;;13.80;62.50;;;;;;4983065;28;20023;-61
2022/11/14 06:55:16;;;;;;;6.77;3.93;;;13.70;62.40;;;;;;4989428;28;20041;-61
2022/11/14 06:57:41;;;;;;;8.33;3.33;;;13.80;62.60;;;;;;4987320;28;20030;-57
2022/11/14 07:00:07;;;;;;;15.50;4.10;;;13.70;62.70;;;;;;4987643;28;20027;-60
2022/11/14 07:02:33;;;;;;;10.43;4.22;;;13.80;62.70;;;;;;4986493;28;20526;-58
2022/11/14 07:04:59;;;;;;;7.30;3.50;;;13.80;62.60;;;;;;4988256;28;20081;-62
2022/11/14 07:07:24;;;;;;;9.50;3.90;;;13.80;62.30;;;;;;4987100;28;20027;-62
2022/11/14 07:09:50;;;;;;;8.37;3.73;;;13.80;62.50;;;;;;4989380;28;20683;-63
2022/11/14 07:12:15;;;;;;;8.87;3.97;;;13.80;62.90;;;;;;4985043;28;20058;-60
2022/11/14 07:14:41;;;;;;;6.37;4.07;;;13.80;63.40;;;;;;4988547;28;20026;-65
2022/11/14 07:17:07;;;;;;;7.07;3.90;;;13.80;63.30;;;;;;4987122;28;20026;-65
2022/11/14 07:19:32;;;;;;;7.17;3.50;;;13.80;62.90;;;;;;4989178;28;20022;-64
2022/11/14 07:21:58;;;;;;;10.73;4.43;;;13.80;63.30;;;;;;4984680;28;20027;-63
2022/11/14 07:24:24;;;;;;;10.33;4.23;;;13.80;63.40;;;;;;4987096;28;20127;-57
2022/11/14 07:26:49;;;;;;;9.30;3.70;;;13.80;63.10;;;;;;4986166;28;20023;-62
2022/11/14 07:29:15;;;;;;;5.30;3.40;;;13.80;63.50;;;;;;4988570;28;20113;-66
2022/11/14 07:31:40;;;;;;;7.07;3.43;;;13.80;63.80;;;;;;4986509;28;20042;-57
2022/11/14 07:34:07;;;;;;;7.00;4.00;;;13.80;63.80;;;;;;4948494;28;1090089;-58
2022/11/14 07:36:33;;;;;;;11.50;4.32;;;13.80;63.70;;;;;;4989743;28;20560;-59
2022/11/14 07:38:59;;;;;;;16.70;4.10;;;13.80;63.70;;;;;;4985752;28;20530;-62
2022/11/14 07:41:24;;;;;;;7.67;3.77;;;13.90;64.00;;;;;;4985936;28;20076;-60
2022/11/14 07:43:50;;;;;;;13.23;4.47;;;13.80;63.90;;;;;;4985654;28;20022;-57
2022/11/14 07:46:17;;;;;;;7.90;3.92;;;13.90;63.90;;;;;;4989464;28;20038;-58
2022/11/14 07:48:43;;;;;;;9.30;4.22;;;13.90;63.90;;;;;;4986225;28;20091;-56
2022/11/14 07:51:14;;;;;;;9.68;4.45;;;13.90;64.30;;;;;;4984444;28;20030;-57
2022/11/14 07:53:40;;;;;;;5.40;4.10;;;13.90;63.50;;;;;;4983629;28;20039;-56
2022/11/14 07:56:08;;;;;;;6.33;3.77;;;13.90;63.70;;;;;;4988885;28;20038;-56
2022/11/14 07:58:35;;;;;;;6.47;3.58;;;13.90;63.10;;;;;;4987907;28;20022;-58
2022/11/14 08:01:01;;;;;;;;;;;14.00;63.70;;;;;;4986803;28;20057;-57
2022/11/14 08:03:27;;;;;;;4.72;3.47;;;14.00;63.80;;;;;;4985437;28;20004;-56
2022/11/14 08:06:04;;;;;;;8.35;4.38;;;14.00;63.30;;;;;;4989272;28;20328;-56
2022/11/14 08:08:30;;;;;;;6.72;4.25;;;14.00;64.30;;;;;;4987452;28;20478;-56
2022/11/14 08:10:57;;;;;;;7.63;4.00;;;14.00;63.00;;;;;;4987221;28;20027;-56
2022/11/14 08:13:24;;;;;;;7.28;4.07;;;14.10;63.90;;;;;;4984648;28;20052;-56
2022/11/14 08:15:49;;;;;;;8.73;3.95;;;14.10;63.50;;;;;;4983501;28;20453;-55
2022/11/14 08:18:15;;;;;;;8.93;3.83;;;14.10;63.00;;;;;;4978724;28;20106;-56
2022/11/14 08:20:41;;;;;;;6.70;3.83;;;14.10;63.20;;;;;;4985963;28;20022;-56
2022/11/14 08:23:06;;;;;;;6.30;3.77;;;14.10;63.20;;;;;;4984027;28;20101;-57
2022/11/14 08:25:32;;;;;;;7.97;3.73;;;14.10;62.90;;;;;;4986834;28;20297;-57
2022/11/14 08:27:58;;;;;;;10.90;3.50;;;14.10;62.90;;;;;;4985157;28;20029;-56
2022/11/14 08:30:24;;;;;;;9.63;4.30;;;14.20;62.90;;;;;;4985394;28;20030;-55
2022/11/14 08:32:50;;;;;;;7.78;3.83;;;14.20;63.40;;;;;;4986757;28;20034;-56
2022/11/14 08:35:16;;;;;;;8.40;4.10;;;14.20;62.90;;;;;;4981983;28;20062;-65
2022/11/14 08:37:42;;;;;;;8.53;4.00;;;14.30;62.40;;;;;;4988129;28;20486;-57
2022/11/14 08:40:08;;;;;;;6.10;3.50;;;14.30;62.20;;;;;;4988101;28;20490;-62
2022/11/14 08:42:34;;;;;;;7.68;3.83;;;14.30;62.60;;;;;;4989108;28;20045;-60
2022/11/14 08:44:59;;;;;;;9.27;4.17;;;14.30;62.30;;;;;;4983480;28;20049;-59
2022/11/14 08:47:25;;;;;;;7.60;3.77;;;14.40;62.70;;;;;;4986299;28;20293;-60
2022/11/14 08:49:51;;;;;;;9.23;3.90;;;14.40;62.20;;;;;;4988540;28;20101;-61
2022/11/14 08:52:17;;;;;;;5.38;3.58;;;14.50;61.90;;;;;;4984427;28;20023;-61
2022/11/14 08:54:42;;;;;;;8.30;3.87;;;14.50;61.80;;;;;;4986590;28;20109;-57
2022/11/14 08:57:08;;;;;;;9.97;3.90;;;14.60;62.60;;;;;;4986397;28;20285;-56
2022/11/14 08:59:34;;;;;;;7.60;3.83;;;14.70;61.70;;;;;;4988220;28;20435;-58
2022/11/14 09:01:59;;;;;;;7.23;4.17;;;14.60;61.50;;;;;;4982007;28;20418;-59
2022/11/14 09:04:25;;;;;;;7.80;4.07;;;14.70;62.10;;;;;;4988463;28;20176;-59
2022/11/14 09:06:51;;;;;;;9.07;3.73;;;14.70;61.60;;;;;;4985171;28;20457;-56
2022/11/14 09:09:17;;;;;;;8.97;3.50;;;14.70;61.60;;;;;;4983734;28;20037;-62
2022/11/14 09:11:42;;;;;;;6.60;3.50;;;14.80;60.80;;;;;;4982784;28;20281;-63
2022/11/14 09:14:08;;;;;;;6.07;3.67;;;14.80;61.90;;;;;;4985895;28;20255;-57
2022/11/14 09:16:34;;;;;;;7.37;3.70;;;14.80;60.60;;;;;;4985196;28;20053;-60
2022/11/14 09:18:59;;;;;;;10.13;4.43;;;14.80;60.60;;;;;;4984516;28;20313;-60
2022/11/14 09:21:25;;;;;;;7.67;4.33;;;14.80;60.60;;;;;;4985972;28;20045;-61
2022/11/14 09:23:51;;;;;;;10.45;4.20;;;14.80;60.40;;;;;;4983193;28;20041;-60
2022/11/14 09:26:17;;;;;;;8.10;3.67;;;14.80;61.20;;;;;;4985610;28;20073;-60
2022/11/14 09:28:44;;;;;;;12.05;3.95;;;14.80;61.50;;;;;;4984051;28;20037;-59
2022/11/14 09:31:11;;;;;;;4.90;3.60;;;14.80;61.80;;;;;;4984493;28;20034;-58
2022/11/14 09:33:37;;;;;;;5.32;3.20;;;14.90;61.60;;;;;;4984551;28;20046;-57
2022/11/14 09:36:06;;;;;;;6.28;3.90;;;14.90;61.30;;;;;;4987127;28;20052;-60
2022/11/14 09:38:32;;;;;;;10.15;3.97;;;14.90;61.20;;;;;;4984335;28;20034;-61
2022/11/14 09:41:26;;;;;;;4.47;3.10;;;14.90;61.50;;;;;;4987304;28;20109;-60
2022/11/14 09:44:16;;;;;;;4.72;3.25;;;14.90;61.70;;;;;;4985603;28;20041;-58
2022/11/14 09:46:55;;;;;;;6.70;3.10;;;14.90;60.60;;;;;;4986060;28;20022;-61
2022/11/14 09:49:41;;;;;;;12.15;4.03;;;15.00;60.80;;;;;;4984059;28;20389;-56
2022/11/14 09:52:28;;;;;;;7.68;3.70;;;15.00;60.90;;;;;;4982979;28;20100;-61
2022/11/14 09:55:15;;;;;;;4.75;3.22;;;15.00;60.50;;;;;;4985736;28;20038;-61
2022/11/14 09:57:43;;;;;;;7.38;4.20;;;15.00;60.50;;;;;;4982455;28;20027;-60
2022/11/14 10:00:16;;;;;;;6.93;3.00;;;15.10;60.40;;;;;;4984188;28;20029;-57
2022/11/14 10:03:06;;;;;;;5.65;3.80;;;15.10;60.40;;;;;;4984782;28;20498;-56
2022/11/14 10:05:46;;;;;;;7.15;3.60;;;15.10;60.00;;;;;;4986104;28;20038;-57
2022/11/14 10:08:40;;;;;;;9.85;3.40;;;15.20;61.20;;;;;;4984272;28;20387;-56
2022/11/14 10:11:29;;;;;;;12.75;3.92;;;15.20;61.40;;;;;;4980379;28;20117;-60
2022/11/14 10:14:18;;;;;;;10.23;3.90;;;15.10;60.90;;;;;;4980513;28;20034;-58
2022/11/14 10:17:21;;;;;;;9.00;4.10;;;15.20;60.50;;;;;;4987122;28;20521;-59
2022/11/14 10:20:23;;;;;;;7.07;3.50;;;15.30;59.70;;;;;;4985297;28;20030;-56
2022/11/14 10:23:07;;;;;;;6.22;3.13;;;15.40;59.80;;;;;;4983835;28;20030;-56
2022/11/14 10:26:01;;;;;;;9.23;3.50;;;15.40;59.70;;;;;;4986267;28;20675;-58
2022/11/14 10:28:51;;;;;;;8.93;3.42;;;15.40;59.60;;;;;;4988264;28;20057;-57
2022/11/14 10:31:51;;;;;;;4.97;3.22;;;15.40;58.70;;;;;;4988956;28;20608;-59
2022/11/14 10:34:28;;;;;;;8.70;3.42;;;15.40;58.40;;;;;;4987487;28;20041;-56
2022/11/14 10:37:13;;;;;;;5.35;3.00;;;15.40;59.00;;;;;;4987794;28;20026;-56
2022/11/14 10:39:59;;;;;;;6.18;3.75;;;15.50;58.80;;;;;;4988086;28;20030;-60
2022/11/14 10:42:35;;;;;;;8.98;3.13;;;15.50;59.10;;;;;;4985918;28;20570;-57
2022/11/14 10:45:06;;;;;;;9.25;2.80;;;15.60;59.40;;;;;;4987725;28;20046;-58
2022/11/14 10:47:38;;;;;;;7.65;3.40;;;15.60;58.60;;;;;;4989854;28;20076;-57
2022/11/14 10:50:18;;;;;;;10.80;3.35;;;15.60;59.70;;;;;;4987750;28;20264;-56
2022/11/14 10:52:45;;;;;;;7.35;2.90;;;15.70;58.40;;;;;;4988018;28;20034;-56
2022/11/14 10:55:18;;;;;;;6.03;3.08;;;15.80;59.20;;;;;;4987446;28;20562;-56
2022/11/14 10:57:45;;;;;;;5.20;3.00;;;15.80;59.30;;;;;;4984022;28;20022;-57
2022/11/14 11:00:15;;;;;;;;;;;15.90;59.10;;;;;;4989963;28;20565;-57
2022/11/14 11:02:56;;;;;;;4.65;3.03;;;15.90;57.40;;;;;;4985094;28;19913;-55
2022/11/14 11:05:26;;;;;;;6.32;2.95;;;16.00;57.50;;;;;;4986371;28;20080;-58
2022/11/14 11:13:34;;;;;;;5.03;2.78;;;16.10;59.20;;;;;;4988231;28;20065;-60
2022/11/14 11:16:03;;;;;;;7.53;2.85;;;16.10;57.30;;;;;;4986936;28;20124;-57
2022/11/14 11:18:34;;;;;;;5.57;2.80;;;16.10;57.00;;;;;;4987178;28;20019;-58
2022/11/14 11:21:09;;;;;;;6.20;3.03;;;16.10;56.40;;;;;;4987606;28;20088;-59
2022/11/14 11:23:36;;;;;;;6.07;2.80;;;16.20;57.00;;;;;;4987302;28;20057;-57
2022/11/14 11:26:04;;;;;;;7.07;3.15;;;16.10;57.40;;;;;;4991886;28;20074;-62
2022/11/14 11:28:35;;;;;;;5.28;2.58;;;16.10;57.00;;;;;;4982139;28;20034;-57
2022/11/14 11:31:06;;;;;;;3.83;2.88;;;16.10;57.00;;;;;;4987339;28;20030;-64
2022/11/14 11:33:34;;;;;;;10.02;3.05;;;16.00;58.40;;;;;;4984452;28;20053;-61
2022/11/14 11:36:15;;;;;;;6.45;2.92;;;16.10;57.50;;;;;;4984298;28;20407;-57
2022/11/14 11:38:41;;;;;;;6.43;2.88;;;16.10;59.30;;;;;;4984009;28;20023;-61
2022/11/14 11:41:31;;;;;;;3.57;2.63;;;16.10;58.00;;;;;;4986614;28;20097;-62
2022/11/14 11:44:03;;;;;;;7.25;2.90;;;16.10;58.90;;;;;;4981601;28;20048;-63
2022/11/14 11:46:53;;;;;;;7.07;2.60;;;16.10;57.70;;;;;;4987050;28;20470;-63
2022/11/14 11:49:45;;;;;;;5.50;2.58;;;16.10;57.70;;;;;;4988542;28;20019;-63
2022/11/14 11:52:25;;;;;;;4.65;2.45;;;16.10;58.80;;;;;;4988841;28;20395;-59
2022/11/14 11:55:07;;;;;;;4.15;2.67;;;16.10;58.40;;;;;;4985485;28;20030;-62
2022/11/14 11:57:37;;;;;;;6.18;2.90;;;16.10;58.70;;;;;;4983787;28;20037;-59
2022/11/14 12:00:16;;;;;;;14.70;3.28;;;16.10;58.30;;;;;;4986337;28;20022;-56
2022/11/14 12:02:45;;;;;;;7.68;3.83;;;16.10;58.40;;;;;;4982346;28;20023;-59
2022/11/14 12:05:41;;;;;;;4.50;2.92;;;16.10;59.70;;;;;;4983415;28;20104;-62
2022/11/14 12:08:28;;;;;;;6.63;2.55;;;16.10;59.00;;;;;;4981320;28;20035;-58
2022/11/14 12:10:55;;;;;;;5.28;2.65;;;16.00;59.70;;;;;;4979890;28;20030;-56
2022/11/14 12:13:43;;;;;;;6.43;2.95;;;16.00;59.30;;;;;;4983698;28;20110;-63
2022/11/14 12:16:13;;;;;;;6.18;3.10;;;16.00;59.00;;;;;;4979143;28;20037;-57
2022/11/14 12:18:50;;;;;;;9.43;3.70;;;15.90;59.70;;;;;;4984453;28;20513;-63
2022/11/14 12:21:25;;;;;;;;;;;16.00;60.70;;;;;;4981681;28;20045;-57
2022/11/14 12:24:36;;;;;;;4.32;2.78;;;16.00;61.40;;;;;;4984746;28;19918;-56
2022/11/14 12:27:28;;;;;;;9.40;3.72;;;15.90;59.90;;;;;;4980007;28;20483;-58
2022/11/14 12:30:00;;;;;;;4.95;2.95;;;15.90;60.60;;;;;;4983803;28;20101;-58
2022/11/14 12:32:32;;;;;;;8.73;2.97;;;15.90;62.00;;;;;;4985412;28;20030;-56
2022/11/14 12:35:02;;;;;;;5.45;3.03;;;15.90;61.70;;;;;;4978977;28;20034;-56
2022/11/14 12:37:35;;;;;;;5.68;2.88;;;15.90;61.60;;;;;;4979879;28;20030;-64
2022/11/14 12:40:03;;;;;;;11.50;3.88;;;15.90;60.40;;;;;;4981961;28;20384;-58
2022/11/14 12:42:32;;;;;;;6.20;3.42;;;15.90;62.40;;;;;;4984265;28;20026;-64
2022/11/14 12:44:58;;;;;;;7.68;2.80;;;15.90;61.10;;;;;;4981257;28;20489;-58
2022/11/14 12:47:26;;;;;;;7.13;3.45;;;15.90;61.40;;;;;;4982626;28;20026;-63
2022/11/14 12:49:51;;;;;;;6.70;3.38;;;15.90;62.60;;;;;;4982544;28;20065;-61
2022/11/14 12:52:49;;;;;;;6.73;3.67;;;15.90;62.00;;;;;;4980786;28;20534;-59
2022/11/14 12:55:24;;;;;;;6.88;3.58;;;15.90;62.40;;;;;;4979743;28;20029;-58
2022/11/14 12:58:10;;;;;;;9.02;3.63;;;15.90;63.00;;;;;;4978012;28;20045;-61
2022/11/14 13:01:19;;;;;;;7.85;3.33;;;15.90;62.10;;;;;;4978997;28;20790;-58